sensor_id;sensor_type;location;lat;lon;timestamp;P1;durP1;ratioP1;P2;durP2;ratioP2
31224;SDS011;17847;31.524;74.366;2023-04-24T00:02:13;25.55;;;11.35;;
31224;SDS011;17847;31.524;74.366;2023-04-24T00:04:42;24.73;;;11.68;;
31224;SDS011;17847;31.524;74.366;2023-04-24T00:07:15;24.95;;;11.80;;
31224;SDS011;17847;31.524;74.366;2023-04-24T00:09:45;19.67;;;10.77;;
31224;SDS011;17847;31.524;74.366;2023-04-24T00:12:14;18.83;;;10.85;;
31224;SDS011;17847;31.524;74.366;2023-04-24T00:14:44;20.73;;;11.15;;
31224;SDS011;17847;31.524;74.366;2023-04-24T00:17:14;29.73;;;11.88;;
31224;SDS011;17847;31.524;74.366;2023-04-24T00:19:44;23.08;;;12.38;;
31224;SDS011;17847;31.524;74.366;2023-04-24T00:22:13;38.20;;;12.13;;
31224;SDS011;17847;31.524;74.366;2023-04-24T00:24:43;36.42;;;12.00;;
31224;SDS011;17847;31.524;74.366;2023-04-24T00:27:12;23.92;;;12.27;;
31224;SDS011;17847;31.524;74.366;2023-04-24T00:29:42;36.53;;;13.00;;
31224;SDS011;17847;31.524;74.366;2023-04-24T00:32:12;29.00;;;13.35;;
31224;SDS011;17847;31.524;74.366;2023-04-24T00:36:12;32.50;;;14.00;;
31224;SDS011;17847;31.524;74.366;2023-04-24T00:40:11;34.30;;;14.30;;
31224;SDS011;17847;31.524;74.366;2023-04-24T00:44:09;33.28;;;14.40;;
31224;SDS011;17847;31.524;74.366;2023-04-24T00:50:12;35.72;;;15.40;;
31224;SDS011;17847;31.524;74.366;2023-04-24T00:52:43;34.55;;;15.38;;
31224;SDS011;17847;31.524;74.366;2023-04-24T00:56:11;35.80;;;15.80;;
31224;SDS011;17847;31.524;74.366;2023-04-24T00:58:41;42.90;;;16.05;;
31224;SDS011;17847;31.524;74.366;2023-04-24T01:01:11;33.60;;;15.98;;
31224;SDS011;17847;31.524;74.366;2023-04-24T01:03:41;41.72;;;19.63;;
31224;SDS011;17847;31.524;74.366;2023-04-24T01:06:12;41.53;;;17.70;;
31224;SDS011;17847;31.524;74.366;2023-04-24T01:08:43;43.10;;;17.23;;
31224;SDS011;17847;31.524;74.366;2023-04-24T01:11:15;33.15;;;17.13;;
31224;SDS011;17847;31.524;74.366;2023-04-24T01:14:42;43.22;;;18.55;;
31224;SDS011;17847;31.524;74.366;2023-04-24T01:17:16;42.47;;;18.73;;
31224;SDS011;17847;31.524;74.366;2023-04-24T01:20:20;56.10;;;20.92;;
31224;SDS011;17847;31.524;74.366;2023-04-24T01:22:50;52.10;;;22.48;;
31224;SDS011;17847;31.524;74.366;2023-04-24T01:25:28;49.40;;;21.65;;
31224;SDS011;17847;31.524;74.366;2023-04-24T01:27:58;52.17;;;21.55;;
31224;SDS011;17847;31.524;74.366;2023-04-24T01:30:31;46.05;;;21.38;;
31224;SDS011;17847;31.524;74.366;2023-04-24T01:33:32;48.92;;;23.25;;
31224;SDS011;17847;31.524;74.366;2023-04-24T01:36:03;52.10;;;23.80;;
31224;SDS011;17847;31.524;74.366;2023-04-24T01:38:34;50.72;;;23.55;;
31224;SDS011;17847;31.524;74.366;2023-04-24T01:41:06;52.83;;;25.35;;
31224;SDS011;17847;31.524;74.366;2023-04-24T01:43:36;59.47;;;25.88;;
31224;SDS011;17847;31.524;74.366;2023-04-24T01:46:06;50.45;;;25.52;;
31224;SDS011;17847;31.524;74.366;2023-04-24T01:48:37;58.45;;;25.40;;
31224;SDS011;17847;31.524;74.366;2023-04-24T01:51:07;54.10;;;25.90;;
31224;SDS011;17847;31.524;74.366;2023-04-24T01:53:36;65.28;;;28.70;;
31224;SDS011;17847;31.524;74.366;2023-04-24T01:56:07;68.32;;;29.35;;
31224;SDS011;17847;31.524;74.366;2023-04-24T01:58:37;53.63;;;29.58;;
31224;SDS011;17847;31.524;74.366;2023-04-24T02:01:09;62.03;;;30.50;;
31224;SDS011;17847;31.524;74.366;2023-04-24T02:03:47;59.92;;;30.58;;
31224;SDS011;17847;31.524;74.366;2023-04-24T02:06:16;61.25;;;32.35;;
31224;SDS011;17847;31.524;74.366;2023-04-24T02:08:46;57.53;;;30.60;;
31224;SDS011;17847;31.524;74.366;2023-04-24T02:11:15;57.90;;;31.40;;
31224;SDS011;17847;31.524;74.366;2023-04-24T02:13:44;62.22;;;30.50;;
31224;SDS011;17847;31.524;74.366;2023-04-24T02:16:13;57.15;;;30.75;;
31224;SDS011;17847;31.524;74.366;2023-04-24T02:18:43;72.32;;;31.15;;
31224;SDS011;17847;31.524;74.366;2023-04-24T02:21:12;71.47;;;30.25;;
31224;SDS011;17847;31.524;74.366;2023-04-24T02:24:08;61.33;;;28.80;;
31224;SDS011;17847;31.524;74.366;2023-04-24T02:26:40;54.83;;;29.35;;
31224;SDS011;17847;31.524;74.366;2023-04-24T02:29:09;54.92;;;30.63;;
31224;SDS011;17847;31.524;74.366;2023-04-24T02:31:40;75.05;;;31.20;;
31224;SDS011;17847;31.524;74.366;2023-04-24T02:34:09;61.40;;;31.10;;
31224;SDS011;17847;31.524;74.366;2023-04-24T02:36:39;55.28;;;30.40;;
31224;SDS011;17847;31.524;74.366;2023-04-24T02:39:08;68.95;;;32.30;;
31224;SDS011;17847;31.524;74.366;2023-04-24T02:41:39;71.15;;;34.03;;
31224;SDS011;17847;31.524;74.366;2023-04-24T02:44:08;63.55;;;34.25;;
31224;SDS011;17847;31.524;74.366;2023-04-24T02:46:38;67.25;;;34.42;;
31224;SDS011;17847;31.524;74.366;2023-04-24T02:49:09;70.35;;;34.72;;
31224;SDS011;17847;31.524;74.366;2023-04-24T02:51:40;67.07;;;35.22;;
31224;SDS011;17847;31.524;74.366;2023-04-24T02:54:09;85.72;;;35.47;;
31224;SDS011;17847;31.524;74.366;2023-04-24T02:57:10;65.72;;;34.35;;
31224;SDS011;17847;31.524;74.366;2023-04-24T02:59:41;72.93;;;36.15;;
31224;SDS011;17847;31.524;74.366;2023-04-24T03:03:09;74.68;;;38.40;;
31224;SDS011;17847;31.524;74.366;2023-04-24T03:06:36;72.65;;;37.65;;
31224;SDS011;17847;31.524;74.366;2023-04-24T03:09:06;77.60;;;35.58;;
31224;SDS011;17847;31.524;74.366;2023-04-24T03:11:35;70.10;;;36.13;;
31224;SDS011;17847;31.524;74.366;2023-04-24T03:14:07;81.85;;;37.40;;
31224;SDS011;17847;31.524;74.366;2023-04-24T03:16:37;97.93;;;47.10;;
31224;SDS011;17847;31.524;74.366;2023-04-24T03:19:07;101.07;;;53.03;;
31224;SDS011;17847;31.524;74.366;2023-04-24T03:21:45;106.38;;;58.38;;
31224;SDS011;17847;31.524;74.366;2023-04-24T03:24:15;113.38;;;57.53;;
31224;SDS011;17847;31.524;74.366;2023-04-24T03:26:44;120.50;;;53.80;;
31224;SDS011;17847;31.524;74.366;2023-04-24T03:29:32;110.20;;;51.53;;
31224;SDS011;17847;31.524;74.366;2023-04-24T03:32:02;125.30;;;63.03;;
31224;SDS011;17847;31.524;74.366;2023-04-24T03:34:33;152.35;;;73.43;;
31224;SDS011;17847;31.524;74.366;2023-04-24T03:37:03;161.40;;;77.45;;
31224;SDS011;17847;31.524;74.366;2023-04-24T03:42:06;104.93;;;53.45;;
31224;SDS011;17847;31.524;74.366;2023-04-24T03:44:47;91.72;;;42.90;;
31224;SDS011;17847;31.524;74.366;2023-04-24T03:47:19;80.70;;;41.28;;
31224;SDS011;17847;31.524;74.366;2023-04-24T03:49:50;86.00;;;36.60;;
31224;SDS011;17847;31.524;74.366;2023-04-24T03:52:20;61.47;;;33.63;;
31224;SDS011;17847;31.524;74.366;2023-04-24T03:54:50;58.97;;;31.40;;
31224;SDS011;17847;31.524;74.366;2023-04-24T03:57:19;62.85;;;31.95;;
31224;SDS011;17847;31.524;74.366;2023-04-24T04:00:04;56.45;;;29.25;;
31224;SDS011;17847;31.524;74.366;2023-04-24T04:02:40;59.88;;;28.48;;
31224;SDS011;17847;31.524;74.366;2023-04-24T04:05:10;52.28;;;24.88;;
31224;SDS011;17847;31.524;74.366;2023-04-24T04:07:40;41.10;;;24.38;;
31224;SDS011;17847;31.524;74.366;2023-04-24T04:10:10;47.45;;;21.92;;
31224;SDS011;17847;31.524;74.366;2023-04-24T04:12:40;35.25;;;16.73;;
31224;SDS011;17847;31.524;74.366;2023-04-24T04:15:09;29.17;;;16.25;;
31224;SDS011;17847;31.524;74.366;2023-04-24T04:17:41;27.13;;;14.75;;
31224;SDS011;17847;31.524;74.366;2023-04-24T04:20:11;30.77;;;14.68;;
31224;SDS011;17847;31.524;74.366;2023-04-24T04:22:40;29.15;;;15.10;;
31224;SDS011;17847;31.524;74.366;2023-04-24T04:25:16;25.20;;;13.40;;
31224;SDS011;17847;31.524;74.366;2023-04-24T04:27:48;21.70;;;12.48;;
31224;SDS011;17847;31.524;74.366;2023-04-24T04:30:19;22.48;;;12.48;;
31224;SDS011;17847;31.524;74.366;2023-04-24T04:32:56;29.88;;;13.50;;
31224;SDS011;17847;31.524;74.366;2023-04-24T04:35:26;20.02;;;10.25;;
31224;SDS011;17847;31.524;74.366;2023-04-24T04:37:56;17.77;;;7.90;;
31224;SDS011;17847;31.524;74.366;2023-04-24T04:40:55;19.55;;;7.43;;
31224;SDS011;17847;31.524;74.366;2023-04-24T04:43:28;16.73;;;7.70;;
31224;SDS011;17847;31.524;74.366;2023-04-24T04:45:59;19.10;;;7.90;;
31224;SDS011;17847;31.524;74.366;2023-04-24T04:48:46;23.27;;;7.75;;
31224;SDS011;17847;31.524;74.366;2023-04-24T04:51:16;21.30;;;7.60;;
31224;SDS011;17847;31.524;74.366;2023-04-24T04:53:45;20.00;;;6.30;;
31224;SDS011;17847;31.524;74.366;2023-04-24T04:56:15;20.45;;;5.40;;
31224;SDS011;17847;31.524;74.366;2023-04-24T04:58:45;12.98;;;4.45;;
31224;SDS011;17847;31.524;74.366;2023-04-24T05:01:17;15.95;;;5.30;;
31224;SDS011;17847;31.524;74.366;2023-04-24T05:03:49;21.60;;;7.63;;
31224;SDS011;17847;31.524;74.366;2023-04-24T05:06:20;13.05;;;5.90;;
31224;SDS011;17847;31.524;74.366;2023-04-24T05:08:52;13.98;;;5.68;;
31224;SDS011;17847;31.524;74.366;2023-04-24T05:11:45;11.95;;;5.45;;
31224;SDS011;17847;31.524;74.366;2023-04-24T05:14:16;13.63;;;4.97;;
31224;SDS011;17847;31.524;74.366;2023-04-24T05:16:46;16.85;;;5.60;;
31224;SDS011;17847;31.524;74.366;2023-04-24T05:21:49;18.52;;;5.88;;
31224;SDS011;17847;31.524;74.366;2023-04-24T05:24:21;12.07;;;5.07;;
31224;SDS011;17847;31.524;74.366;2023-04-24T05:36:07;13.00;;;4.40;;
31224;SDS011;17847;31.524;74.366;2023-04-24T05:38:37;11.40;;;4.65;;
31224;SDS011;17847;31.524;74.366;2023-04-24T05:41:06;13.00;;;5.35;;
31224;SDS011;17847;31.524;74.366;2023-04-24T05:43:36;9.45;;;4.22;;
31224;SDS011;17847;31.524;74.366;2023-04-24T05:46:05;12.30;;;5.30;;
31224;SDS011;17847;31.524;74.366;2023-04-24T05:48:34;11.43;;;4.47;;
31224;SDS011;17847;31.524;74.366;2023-04-24T05:51:04;9.35;;;4.60;;
31224;SDS011;17847;31.524;74.366;2023-04-24T05:53:33;13.68;;;5.30;;
31224;SDS011;17847;31.524;74.366;2023-04-24T05:56:04;15.23;;;5.15;;
31224;SDS011;17847;31.524;74.366;2023-04-24T05:58:35;10.38;;;5.35;;
31224;SDS011;17847;31.524;74.366;2023-04-24T06:01:06;20.08;;;5.75;;
31224;SDS011;17847;31.524;74.366;2023-04-24T06:03:37;17.33;;;5.20;;
31224;SDS011;17847;31.524;74.366;2023-04-24T06:06:08;9.20;;;4.78;;
31224;SDS011;17847;31.524;74.366;2023-04-24T06:08:38;9.75;;;4.38;;
31224;SDS011;17847;31.524;74.366;2023-04-24T06:11:07;9.88;;;4.45;;
31224;SDS011;17847;31.524;74.366;2023-04-24T06:13:37;14.23;;;4.47;;
31224;SDS011;17847;31.524;74.366;2023-04-24T06:16:25;12.82;;;4.20;;
31224;SDS011;17847;31.524;74.366;2023-04-24T06:19:01;9.48;;;4.63;;
31224;SDS011;17847;31.524;74.366;2023-04-24T06:21:31;10.73;;;5.03;;
31224;SDS011;17847;31.524;74.366;2023-04-24T06:24:00;7.85;;;4.50;;
31224;SDS011;17847;31.524;74.366;2023-04-24T06:26:31;10.35;;;4.63;;
31224;SDS011;17847;31.524;74.366;2023-04-24T06:29:00;12.32;;;4.70;;
31224;SDS011;17847;31.524;74.366;2023-04-24T06:31:30;12.85;;;4.28;;
31224;SDS011;17847;31.524;74.366;2023-04-24T06:34:04;8.70;;;4.43;;
31224;SDS011;17847;31.524;74.366;2023-04-24T06:36:33;20.65;;;4.85;;
31224;SDS011;17847;31.524;74.366;2023-04-24T06:39:04;16.83;;;5.28;;
31224;SDS011;17847;31.524;74.366;2023-04-24T06:41:34;10.55;;;4.95;;
31224;SDS011;17847;31.524;74.366;2023-04-24T06:44:04;14.52;;;4.82;;
31224;SDS011;17847;31.524;74.366;2023-04-24T06:46:34;11.45;;;4.20;;
31224;SDS011;17847;31.524;74.366;2023-04-24T06:51:37;7.25;;;4.15;;
31224;SDS011;17847;31.524;74.366;2023-04-24T06:54:06;11.00;;;4.93;;
31224;SDS011;17847;31.524;74.366;2023-04-24T06:56:36;11.82;;;4.35;;
31224;SDS011;17847;31.524;74.366;2023-04-24T06:59:05;7.18;;;3.97;;
31224;SDS011;17847;31.524;74.366;2023-04-24T07:01:34;9.25;;;4.43;;
31224;SDS011;17847;31.524;74.366;2023-04-24T07:04:04;17.33;;;5.25;;
31224;SDS011;17847;31.524;74.366;2023-04-24T07:06:34;11.07;;;4.18;;
31224;SDS011;17847;31.524;74.366;2023-04-24T07:09:07;11.45;;;4.53;;
31224;SDS011;17847;31.524;74.366;2023-04-24T07:11:38;12.20;;;4.40;;
31224;SDS011;17847;31.524;74.366;2023-04-24T07:14:08;10.20;;;3.95;;
31224;SDS011;17847;31.524;74.366;2023-04-24T07:16:38;11.43;;;4.07;;
31224;SDS011;17847;31.524;74.366;2023-04-24T07:19:08;14.93;;;3.90;;
31224;SDS011;17847;31.524;74.366;2023-04-24T07:21:39;10.20;;;3.45;;
31224;SDS011;17847;31.524;74.366;2023-04-24T07:24:09;10.90;;;3.60;;
31224;SDS011;17847;31.524;74.366;2023-04-24T07:26:40;9.60;;;3.50;;
31224;SDS011;17847;31.524;74.366;2023-04-24T07:29:09;10.13;;;3.35;;
31224;SDS011;17847;31.524;74.366;2023-04-24T07:31:39;13.35;;;3.47;;
31224;SDS011;17847;31.524;74.366;2023-04-24T07:34:09;9.23;;;3.65;;
31224;SDS011;17847;31.524;74.366;2023-04-24T07:36:38;17.85;;;4.47;;
31224;SDS011;17847;31.524;74.366;2023-04-24T07:39:09;11.02;;;3.85;;
31224;SDS011;17847;31.524;74.366;2023-04-24T07:41:38;6.93;;;3.20;;
31224;SDS011;17847;31.524;74.366;2023-04-24T07:44:08;14.00;;;4.07;;
31224;SDS011;17847;31.524;74.366;2023-04-24T07:47:04;9.07;;;3.80;;
31224;SDS011;17847;31.524;74.366;2023-04-24T07:49:33;11.93;;;3.72;;
31224;SDS011;17847;31.524;74.366;2023-04-24T07:52:15;9.70;;;3.67;;
31224;SDS011;17847;31.524;74.366;2023-04-24T07:54:45;4.60;;;3.50;;
31224;SDS011;17847;31.524;74.366;2023-04-24T07:57:14;6.00;;;3.53;;
31224;SDS011;17847;31.524;74.366;2023-04-24T07:59:43;11.23;;;4.25;;
31224;SDS011;17847;31.524;74.366;2023-04-24T08:02:13;11.50;;;3.35;;
31224;SDS011;17847;31.524;74.366;2023-04-24T08:04:50;12.45;;;3.38;;
31224;SDS011;17847;31.524;74.366;2023-04-24T08:07:21;8.35;;;3.63;;
31224;SDS011;17847;31.524;74.366;2023-04-24T08:09:51;11.40;;;4.05;;
31224;SDS011;17847;31.524;74.366;2023-04-24T08:12:20;5.55;;;3.30;;
31224;SDS011;17847;31.524;74.366;2023-04-24T08:14:50;6.13;;;3.53;;
31224;SDS011;17847;31.524;74.366;2023-04-24T08:17:20;6.55;;;3.50;;
31224;SDS011;17847;31.524;74.366;2023-04-24T08:19:49;16.42;;;3.95;;
31224;SDS011;17847;31.524;74.366;2023-04-24T08:22:20;8.75;;;3.60;;
31224;SDS011;17847;31.524;74.366;2023-04-24T08:24:49;8.38;;;3.63;;
31224;SDS011;17847;31.524;74.366;2023-04-24T08:27:19;7.95;;;3.42;;
31224;SDS011;17847;31.524;74.366;2023-04-24T08:29:49;7.57;;;2.95;;
31224;SDS011;17847;31.524;74.366;2023-04-24T08:32:18;10.20;;;3.50;;
31224;SDS011;17847;31.524;74.366;2023-04-24T08:34:48;14.43;;;3.25;;
31224;SDS011;17847;31.524;74.366;2023-04-24T08:37:18;10.73;;;3.55;;
31224;SDS011;17847;31.524;74.366;2023-04-24T08:39:47;7.55;;;2.75;;
31224;SDS011;17847;31.524;74.366;2023-04-24T08:42:18;10.30;;;3.10;;
31224;SDS011;17847;31.524;74.366;2023-04-24T08:44:49;23.95;;;4.05;;
31224;SDS011;17847;31.524;74.366;2023-04-24T08:47:19;8.73;;;3.55;;
31224;SDS011;17847;31.524;74.366;2023-04-24T08:50:28;11.23;;;2.80;;
31224;SDS011;17847;31.524;74.366;2023-04-24T08:52:58;4.45;;;2.85;;
31224;SDS011;17847;31.524;74.366;2023-04-24T08:55:31;5.97;;;2.92;;
31224;SDS011;17847;31.524;74.366;2023-04-24T08:58:02;14.27;;;2.90;;
31224;SDS011;17847;31.524;74.366;2023-04-24T09:00:32;7.05;;;2.75;;
31224;SDS011;17847;31.524;74.366;2023-04-24T09:03:01;6.28;;;2.80;;
31224;SDS011;17847;31.524;74.366;2023-04-24T09:05:33;9.82;;;3.00;;
31224;SDS011;17847;31.524;74.366;2023-04-24T09:08:03;15.75;;;4.22;;
31224;SDS011;17847;31.524;74.366;2023-04-24T09:10:34;8.40;;;2.95;;
31224;SDS011;17847;31.524;74.366;2023-04-24T09:13:04;8.55;;;2.75;;
31224;SDS011;17847;31.524;74.366;2023-04-24T09:15:33;5.50;;;2.60;;
31224;SDS011;17847;31.524;74.366;2023-04-24T09:18:04;3.97;;;2.35;;
31224;SDS011;17847;31.524;74.366;2023-04-24T09:20:33;6.50;;;2.85;;
31224;SDS011;17847;31.524;74.366;2023-04-24T09:23:05;5.13;;;2.80;;
31224;SDS011;17847;31.524;74.366;2023-04-24T09:25:36;9.27;;;2.70;;
31224;SDS011;17847;31.524;74.366;2023-04-24T09:28:05;10.05;;;2.60;;
31224;SDS011;17847;31.524;74.366;2023-04-24T09:30:34;8.02;;;2.53;;
31224;SDS011;17847;31.524;74.366;2023-04-24T09:33:10;5.72;;;2.53;;
31224;SDS011;17847;31.524;74.366;2023-04-24T09:35:50;4.93;;;2.50;;
31224;SDS011;17847;31.524;74.366;2023-04-24T09:38:30;4.57;;;2.33;;
31224;SDS011;17847;31.524;74.366;2023-04-24T09:41:07;7.40;;;2.53;;
31224;SDS011;17847;31.524;74.366;2023-04-24T09:43:42;7.10;;;3.33;;
31224;SDS011;17847;31.524;74.366;2023-04-24T09:46:11;4.30;;;2.50;;
31224;SDS011;17847;31.524;74.366;2023-04-24T09:48:41;12.20;;;3.08;;
31224;SDS011;17847;31.524;74.366;2023-04-24T09:51:11;5.45;;;2.53;;
31224;SDS011;17847;31.524;74.366;2023-04-24T09:53:45;10.02;;;2.58;;
31224;SDS011;17847;31.524;74.366;2023-04-24T09:56:23;11.88;;;2.75;;
31224;SDS011;17847;31.524;74.366;2023-04-24T09:58:55;14.88;;;2.70;;
31224;SDS011;17847;31.524;74.366;2023-04-24T10:01:33;6.68;;;2.97;;
31224;SDS011;17847;31.524;74.366;2023-04-24T10:04:03;8.35;;;2.65;;
31224;SDS011;17847;31.524;74.366;2023-04-24T10:06:33;9.65;;;2.92;;
31224;SDS011;17847;31.524;74.366;2023-04-24T10:09:04;7.70;;;2.90;;
31224;SDS011;17847;31.524;74.366;2023-04-24T10:11:34;9.38;;;3.15;;
31224;SDS011;17847;31.524;74.366;2023-04-24T10:14:04;8.68;;;2.45;;
31224;SDS011;17847;31.524;74.366;2023-04-24T10:16:34;10.00;;;2.85;;
31224;SDS011;17847;31.524;74.366;2023-04-24T10:19:05;8.65;;;2.80;;
31224;SDS011;17847;31.524;74.366;2023-04-24T10:21:36;10.57;;;3.27;;
31224;SDS011;17847;31.524;74.366;2023-04-24T10:24:11;9.15;;;2.83;;
31224;SDS011;17847;31.524;74.366;2023-04-24T10:26:45;7.40;;;2.70;;
31224;SDS011;17847;31.524;74.366;2023-04-24T10:29:17;8.68;;;2.90;;
31224;SDS011;17847;31.524;74.366;2023-04-24T10:31:48;14.73;;;3.65;;
31224;SDS011;17847;31.524;74.366;2023-04-24T10:34:18;7.93;;;2.63;;
31224;SDS011;17847;31.524;74.366;2023-04-24T10:36:52;6.28;;;3.55;;
31224;SDS011;17847;31.524;74.366;2023-04-24T10:39:25;9.73;;;3.10;;
31224;SDS011;17847;31.524;74.366;2023-04-24T10:41:55;11.73;;;3.33;;
31224;SDS011;17847;31.524;74.366;2023-04-24T10:44:27;11.48;;;3.28;;
31224;SDS011;17847;31.524;74.366;2023-04-24T10:47:05;7.88;;;3.10;;
31224;SDS011;17847;31.524;74.366;2023-04-24T10:49:41;7.13;;;2.72;;
31224;SDS011;17847;31.524;74.366;2023-04-24T10:52:11;8.55;;;3.10;;
31224;SDS011;17847;31.524;74.366;2023-04-24T10:59:49;7.82;;;2.88;;
31224;SDS011;17847;31.524;74.366;2023-04-24T11:02:35;6.35;;;3.10;;
31224;SDS011;17847;31.524;74.366;2023-04-24T11:05:06;11.50;;;3.15;;
31224;SDS011;17847;31.524;74.366;2023-04-24T11:10:45;9.88;;;3.38;;
31224;SDS011;17847;31.524;74.366;2023-04-24T11:13:18;8.50;;;3.00;;
31224;SDS011;17847;31.524;74.366;2023-04-24T11:18:44;8.18;;;3.80;;
31224;SDS011;17847;31.524;74.366;2023-04-24T11:21:16;8.35;;;3.15;;
31224;SDS011;17847;31.524;74.366;2023-04-24T11:23:47;6.88;;;2.92;;
31224;SDS011;17847;31.524;74.366;2023-04-24T11:26:23;15.45;;;2.90;;
31224;SDS011;17847;31.524;74.366;2023-04-24T11:29:07;4.97;;;2.67;;
31224;SDS011;17847;31.524;74.366;2023-04-24T11:37:46;6.45;;;2.78;;
31224;SDS011;17847;31.524;74.366;2023-04-24T11:40:40;10.55;;;3.17;;
31224;SDS011;17847;31.524;74.366;2023-04-24T11:43:12;13.73;;;3.40;;
31224;SDS011;17847;31.524;74.366;2023-04-24T11:45:47;15.68;;;3.15;;
31224;SDS011;17847;31.524;74.366;2023-04-24T11:48:19;5.82;;;3.25;;
31224;SDS011;17847;31.524;74.366;2023-04-24T11:50:50;8.45;;;3.10;;
31224;SDS011;17847;31.524;74.366;2023-04-24T11:54:25;9.07;;;2.78;;
31224;SDS011;17847;31.524;74.366;2023-04-24T11:58:25;9.57;;;3.50;;
31224;SDS011;17847;31.524;74.366;2023-04-24T12:02:25;8.43;;;3.17;;
31224;SDS011;17847;31.524;74.366;2023-04-24T12:04:56;9.45;;;3.28;;
31224;SDS011;17847;31.524;74.366;2023-04-24T12:07:26;13.85;;;3.53;;
31224;SDS011;17847;31.524;74.366;2023-04-24T12:09:56;4.43;;;2.92;;
31224;SDS011;17847;31.524;74.366;2023-04-24T12:12:29;9.57;;;2.95;;
31224;SDS011;17847;31.524;74.366;2023-04-24T12:14:59;7.25;;;3.20;;
31224;SDS011;17847;31.524;74.366;2023-04-24T12:17:31;6.55;;;3.65;;
31224;SDS011;17847;31.524;74.366;2023-04-24T12:20:03;7.78;;;3.30;;
31224;SDS011;17847;31.524;74.366;2023-04-24T12:22:51;8.85;;;3.30;;
31224;SDS011;17847;31.524;74.366;2023-04-24T12:25:26;8.65;;;3.50;;
31224;SDS011;17847;31.524;74.366;2023-04-24T12:30:34;9.70;;;4.47;;
31224;SDS011;17847;31.524;74.366;2023-04-24T12:33:08;11.98;;;3.50;;
31224;SDS011;17847;31.524;74.366;2023-04-24T12:35:39;15.23;;;3.47;;
31224;SDS011;17847;31.524;74.366;2023-04-24T12:38:11;14.82;;;3.53;;
31224;SDS011;17847;31.524;74.366;2023-04-24T12:40:42;11.50;;;3.65;;
31224;SDS011;17847;31.524;74.366;2023-04-24T12:43:13;9.60;;;3.63;;
31224;SDS011;17847;31.524;74.366;2023-04-24T12:45:44;8.32;;;3.35;;
31224;SDS011;17847;31.524;74.366;2023-04-24T12:48:15;15.82;;;3.67;;
31224;SDS011;17847;31.524;74.366;2023-04-24T12:50:44;13.75;;;3.35;;
31224;SDS011;17847;31.524;74.366;2023-04-24T12:53:14;10.57;;;3.30;;
31224;SDS011;17847;31.524;74.366;2023-04-24T12:55:44;9.88;;;4.00;;
31224;SDS011;17847;31.524;74.366;2023-04-24T12:58:15;9.65;;;3.40;;
31224;SDS011;17847;31.524;74.366;2023-04-24T13:00:44;14.55;;;4.18;;
31224;SDS011;17847;31.524;74.366;2023-04-24T13:03:15;17.45;;;4.55;;
31224;SDS011;17847;31.524;74.366;2023-04-24T13:05:44;12.60;;;4.93;;
31224;SDS011;17847;31.524;74.366;2023-04-24T13:08:14;8.02;;;3.92;;
31224;SDS011;17847;31.524;74.366;2023-04-24T13:10:43;16.05;;;5.40;;
31224;SDS011;17847;31.524;74.366;2023-04-24T13:13:13;13.82;;;4.25;;
31224;SDS011;17847;31.524;74.366;2023-04-24T13:15:44;12.27;;;3.97;;
31224;SDS011;17847;31.524;74.366;2023-04-24T13:18:13;16.17;;;4.20;;
31224;SDS011;17847;31.524;74.366;2023-04-24T13:20:43;13.50;;;4.55;;
31224;SDS011;17847;31.524;74.366;2023-04-24T13:23:16;10.02;;;4.00;;
31224;SDS011;17847;31.524;74.366;2023-04-24T13:25:45;18.05;;;4.18;;
31224;SDS011;17847;31.524;74.366;2023-04-24T13:28:16;10.98;;;3.60;;
31224;SDS011;17847;31.524;74.366;2023-04-24T13:30:45;11.52;;;4.38;;
31224;SDS011;17847;31.524;74.366;2023-04-24T13:33:17;19.73;;;5.72;;
31224;SDS011;17847;31.524;74.366;2023-04-24T13:35:46;10.13;;;4.05;;
31224;SDS011;17847;31.524;74.366;2023-04-24T13:38:16;12.77;;;4.40;;
31224;SDS011;17847;31.524;74.366;2023-04-24T13:40:45;10.15;;;4.32;;
31224;SDS011;17847;31.524;74.366;2023-04-24T13:43:14;15.88;;;4.50;;
31224;SDS011;17847;31.524;74.366;2023-04-24T13:45:47;14.05;;;4.50;;
31224;SDS011;17847;31.524;74.366;2023-04-24T13:48:16;14.52;;;4.55;;
31224;SDS011;17847;31.524;74.366;2023-04-24T13:50:46;17.35;;;4.93;;
31224;SDS011;17847;31.524;74.366;2023-04-24T13:53:18;16.00;;;5.05;;
31224;SDS011;17847;31.524;74.366;2023-04-24T13:55:47;16.65;;;4.60;;
31224;SDS011;17847;31.524;74.366;2023-04-24T13:58:16;13.93;;;6.00;;
31224;SDS011;17847;31.524;74.366;2023-04-24T14:00:46;16.52;;;5.15;;
31224;SDS011;17847;31.524;74.366;2023-04-24T14:03:15;10.07;;;5.82;;
31224;SDS011;17847;31.524;74.366;2023-04-24T14:05:54;12.00;;;5.15;;
31224;SDS011;17847;31.524;74.366;2023-04-24T14:08:23;11.05;;;5.78;;
31224;SDS011;17847;31.524;74.366;2023-04-24T14:10:53;16.20;;;5.80;;
31224;SDS011;17847;31.524;74.366;2023-04-24T14:13:23;13.95;;;5.63;;
31224;SDS011;17847;31.524;74.366;2023-04-24T14:15:53;13.80;;;5.57;;
31224;SDS011;17847;31.524;74.366;2023-04-24T14:18:23;16.95;;;6.18;;
31224;SDS011;17847;31.524;74.366;2023-04-24T14:20:53;13.85;;;5.68;;
31224;SDS011;17847;31.524;74.366;2023-04-24T14:23:22;13.73;;;5.47;;
31224;SDS011;17847;31.524;74.366;2023-04-24T14:25:52;17.45;;;5.80;;
31224;SDS011;17847;31.524;74.366;2023-04-24T14:28:22;16.20;;;6.75;;
31224;SDS011;17847;31.524;74.366;2023-04-24T14:30:51;24.45;;;6.47;;
31224;SDS011;17847;31.524;74.366;2023-04-24T14:33:22;11.23;;;5.72;;
31224;SDS011;17847;31.524;74.366;2023-04-24T14:35:52;19.02;;;6.18;;
31224;SDS011;17847;31.524;74.366;2023-04-24T14:38:22;14.85;;;5.55;;
31224;SDS011;17847;31.524;74.366;2023-04-24T14:40:51;21.30;;;6.50;;
31224;SDS011;17847;31.524;74.366;2023-04-24T14:43:24;10.25;;;5.40;;
31224;SDS011;17847;31.524;74.366;2023-04-24T14:45:54;15.15;;;6.05;;
31224;SDS011;17847;31.524;74.366;2023-04-24T14:48:23;21.83;;;6.55;;
31224;SDS011;17847;31.524;74.366;2023-04-24T14:50:53;12.90;;;6.32;;
31224;SDS011;17847;31.524;74.366;2023-04-24T14:53:22;18.95;;;5.97;;
31224;SDS011;17847;31.524;74.366;2023-04-24T14:55:52;19.15;;;5.70;;
31224;SDS011;17847;31.524;74.366;2023-04-24T14:58:22;13.63;;;6.35;;
31224;SDS011;17847;31.524;74.366;2023-04-24T15:00:51;14.88;;;6.13;;
31224;SDS011;17847;31.524;74.366;2023-04-24T15:03:23;16.00;;;6.07;;
31224;SDS011;17847;31.524;74.366;2023-04-24T15:05:57;14.85;;;6.00;;
31224;SDS011;17847;31.524;74.366;2023-04-24T15:08:26;14.32;;;6.32;;
31224;SDS011;17847;31.524;74.366;2023-04-24T15:10:57;19.30;;;5.65;;
31224;SDS011;17847;31.524;74.366;2023-04-24T15:13:27;17.65;;;6.15;;
31224;SDS011;17847;31.524;74.366;2023-04-24T15:15:57;18.80;;;6.10;;
31224;SDS011;17847;31.524;74.366;2023-04-24T15:18:27;17.75;;;6.88;;
31224;SDS011;17847;31.524;74.366;2023-04-24T15:20:57;13.82;;;6.45;;
31224;SDS011;17847;31.524;74.366;2023-04-24T15:23:27;18.02;;;6.80;;
31224;SDS011;17847;31.524;74.366;2023-04-24T15:25:56;21.45;;;6.85;;
31224;SDS011;17847;31.524;74.366;2023-04-24T15:28:26;16.00;;;6.25;;
31224;SDS011;17847;31.524;74.366;2023-04-24T15:30:55;14.90;;;6.10;;
31224;SDS011;17847;31.524;74.366;2023-04-24T15:33:24;26.35;;;6.95;;
31224;SDS011;17847;31.524;74.366;2023-04-24T15:35:54;15.43;;;6.03;;
31224;SDS011;17847;31.524;74.366;2023-04-24T15:38:24;17.77;;;7.43;;
31224;SDS011;17847;31.524;74.366;2023-04-24T15:40:54;16.27;;;6.53;;